EGKK/LGW METAR and TAF weather

Enter ICAO airport designator
Station Type Date Time Source
EGKK METAR 2019/10/16 19:50 UTC NOAA

EGKK 161950Z 23003KT CAVOK 11/11 Q1005


Station Type Date Time Source
EGKK Decoded METAR 2019/10/16 19:50 UTC NOAA

London / Gatwick Airport, United Kingdom (EGKK) 51-09N 000-11W 0M
Oct 16, 2019 - 03:50 PM EDT / 2019.10.16 1950 UTC
Wind: from the SW (230 degrees) at 3 MPH (3 KT):0
Visibility: greater than 7 mile(s):0
Temperature: 51 F (11 C)
Dew Point: 51 F (11 C)
Relative Humidity: 100%
Pressure (altimeter): 29.68 in. Hg (1005 hPa)
ob: EGKK 161950Z 23003KT CAVOK 11/11 Q1005
cycle: 20

Station Type Date Time Source
EGKK TAF 2019/10/16 18:09 UTC NOAA

TAF EGKK 161700Z 1618/1724 VRB03KT 9999 FEW030
BECMG 1709/1712 18010KT
TEMPO 1709/1718 7000 SHRA PROB30
TEMPO 1711/1714 19015G25KT 4000 +SHRA BKN014 PROB40
TEMPO 1721/1724 7000 SHRA

Example: see airport list